Time;durP1;ratioP1;P1;durP2;ratioP2;P2;SDS_P1;SDS_P2;PMS_P1;PMS_P2;Temp;Humidity;BMP_temperature;BMP_pressure;BME280_temperature;BME280_humidity;BME280_pressure;Samples;Min_cycle;Max_cycle;Signal;HPM_P1;HPM_P2
2021/07/16 00:00:41;;;;;;;1.23;1.10;;;19.40;76.00;;;;;;5045859;28;20088;-82
2021/07/16 00:03:07;;;;;;;1.20;1.10;;;19.30;76.20;;;;;;5053644;28;20469;-82
2021/07/16 00:05:50;;;;;;;1.50;1.13;;;19.40;76.50;;;;;;5053815;28;20028;-82
2021/07/16 00:08:16;;;;;;;1.25;0.95;;;19.30;76.40;;;;;;5029075;28;20026;-82
2021/07/16 00:10:43;;;;;;;1.40;1.00;;;19.40;76.00;;;;;;5015438;28;20139;-82
2021/07/16 00:13:09;;;;;;;1.33;1.10;;;19.40;76.10;;;;;;5015220;28;20038;-82
2021/07/16 00:15:35;;;;;;;1.40;1.17;;;19.40;76.00;;;;;;5015254;28;20033;-82
2021/07/16 00:18:01;;;;;;;1.20;1.10;;;19.40;76.30;;;;;;5015283;28;20030;-82
2021/07/16 00:20:26;;;;;;;1.30;1.10;;;19.40;76.40;;;;;;5030332;28;20029;-82
2021/07/16 00:22:54;;;;;;;1.30;1.00;;;19.40;76.20;;;;;;5015142;28;20408;-82
2021/07/16 00:25:20;;;;;;;1.50;1.10;;;19.40;76.60;;;;;;5015117;28;20057;-82
2021/07/16 00:27:45;;;;;;;1.50;1.10;;;19.40;76.50;;;;;;5015222;28;20070;-82
2021/07/16 00:30:12;;;;;;;1.40;1.30;;;19.50;76.50;;;;;;5015176;28;20555;-82
2021/07/16 00:32:38;;;;;;;2.15;1.10;;;19.40;76.40;;;;;;5013891;28;20050;-82
2021/07/16 00:35:04;;;;;;;1.10;0.95;;;19.50;76.90;;;;;;5016193;28;20091;-82
2021/07/16 00:37:30;;;;;;;1.33;0.95;;;19.50;76.80;;;;;;5019054;28;20029;-82
2021/07/16 00:39:56;;;;;;;1.17;0.90;;;19.50;76.60;;;;;;5018911;28;20080;-82
2021/07/16 00:42:22;;;;;;;1.35;1.10;;;19.60;76.10;;;;;;5018951;28;20038;-82
2021/07/16 00:44:47;;;;;;;1.23;1.13;;;19.60;76.20;;;;;;5018812;28;20020;-82
2021/07/16 00:47:13;;;;;;;2.10;1.40;;;19.50;76.50;;;;;;5017476;28;20060;-82
2021/07/16 00:49:39;;;;;;;1.42;1.30;;;19.50;76.30;;;;;;5018802;28;20022;-82
2021/07/16 00:52:05;;;;;;;1.60;1.10;;;19.60;76.40;;;;;;5018461;28;20176;-83
2021/07/16 00:54:31;;;;;;;1.33;1.23;;;19.60;76.10;;;;;;5039510;28;20056;-82
2021/07/16 00:56:57;;;;;;;1.20;1.10;;;19.70;75.90;;;;;;5036767;28;20092;-83
2021/07/16 00:59:25;;;;;;;1.52;1.30;;;19.70;76.30;;;;;;5024340;28;20084;-82
2021/07/16 01:01:54;;;;;;;1.20;1.10;;;19.50;76.30;;;;;;5017187;28;20435;-82
2021/07/16 01:04:20;;;;;;;1.40;1.20;;;19.60;76.30;;;;;;5021535;28;20032;-82
2021/07/16 01:06:45;;;;;;;1.70;1.30;;;19.60;76.10;;;;;;5038161;28;20510;-83
2021/07/16 01:09:11;;;;;;;1.42;1.30;;;19.60;76.30;;;;;;5038232;28;20084;-83
2021/07/16 01:11:37;;;;;;;1.40;1.13;;;19.60;76.10;;;;;;5038214;28;20156;-83
2021/07/16 01:14:03;;;;;;;1.50;1.33;;;19.70;75.80;;;;;;5032153;28;20026;-82
2021/07/16 01:16:29;;;;;;;1.40;1.30;;;19.60;76.30;;;;;;5018287;28;20114;-83
2021/07/16 01:18:55;;;;;;;1.38;1.27;;;19.50;77.00;;;;;;5018354;28;20056;-83
2021/07/16 01:21:22;;;;;;;1.50;1.20;;;19.60;76.60;;;;;;5018128;28;20034;-83
2021/07/16 01:23:48;;;;;;;1.63;1.40;;;19.60;76.50;;;;;;5034395;28;20438;-82
2021/07/16 01:26:14;;;;;;;1.70;1.48;;;19.60;76.60;;;;;;5019219;28;20025;-82
2021/07/16 01:28:40;;;;;;;1.75;1.42;;;19.60;76.60;;;;;;5032143;28;20056;-82
2021/07/16 01:31:10;;;;;;;1.40;1.30;;;19.60;76.10;;;;;;5017981;28;20025;-82
2021/07/16 01:33:36;;;;;;;1.80;1.35;;;19.70;76.10;;;;;;5018536;28;20030;-83
2021/07/16 01:36:01;;;;;;;2.15;1.45;;;19.70;76.30;;;;;;5036366;28;20040;-83
2021/07/16 01:38:28;;;;;;;1.50;1.40;;;19.60;76.50;;;;;;5037730;28;20096;-83
2021/07/16 01:40:54;;;;;;;1.50;1.30;;;19.60;76.60;;;;;;5037549;28;20033;-83
2021/07/16 01:43:21;;;;;;;1.50;1.40;;;19.60;76.60;;;;;;5022400;28;20030;-82
2021/07/16 01:45:46;;;;;;;1.63;1.52;;;19.60;76.70;;;;;;5017233;28;20030;-83
2021/07/16 01:48:15;;;;;;;1.55;1.40;;;19.60;77.10;;;;;;5017702;28;20061;-83
2021/07/16 01:50:47;;;;;;;1.60;1.40;;;19.60;76.40;;;;;;5017503;28;20037;-82
2021/07/16 01:53:15;;;;;;;1.83;1.60;;;19.60;76.70;;;;;;5033704;28;20057;-82
2021/07/16 01:55:42;;;;;;;1.60;1.50;;;19.60;77.10;;;;;;5057439;28;20141;-82
2021/07/16 01:58:09;;;;;;;2.38;1.50;;;19.60;76.90;;;;;;5021009;28;20037;-82
2021/07/16 02:00:41;;;;;;;1.50;1.40;;;19.60;77.00;;;;;;5017296;28;20041;-82
2021/07/16 02:03:09;;;;;;;1.90;1.50;;;19.60;76.90;;;;;;5033979;28;20030;-83
2021/07/16 02:05:37;;;;;;;2.10;1.60;;;19.60;76.80;;;;;;5037179;28;20022;-83
2021/07/16 02:08:15;;;;;;;1.40;1.30;;;19.60;77.10;;;;;;5028586;28;20018;-83
2021/07/16 02:11:01;;;;;;;1.67;1.45;;;19.50;77.30;;;;;;5017265;28;20045;-83
2021/07/16 02:13:27;;;;;;;1.60;1.10;;;19.50;77.30;;;;;;5028556;28;20104;-82
2021/07/16 02:15:54;;;;;;;1.70;1.30;;;19.50;77.30;;;;;;5017086;28;20057;-82
2021/07/16 02:18:21;;;;;;;1.95;1.50;;;19.50;77.00;;;;;;5017095;28;20037;-83
2021/07/16 02:20:47;;;;;;;1.50;1.40;;;19.50;77.10;;;;;;5016896;28;20035;-83
2021/07/16 02:23:18;;;;;;;1.88;1.33;;;19.50;77.00;;;;;;5016807;28;20034;-83
2021/07/16 02:25:44;;;;;;;1.67;1.48;;;19.30;77.20;;;;;;5017003;28;20496;-83
2021/07/16 02:28:18;;;;;;;1.52;1.40;;;19.30;77.60;;;;;;5032144;28;20115;-83
2021/07/16 02:30:44;;;;;;;2.55;1.48;;;19.30;77.30;;;;;;5016783;28;20492;-83
2021/07/16 02:33:10;;;;;;;1.70;1.50;;;19.30;77.80;;;;;;5015414;28;20060;-83
2021/07/16 02:35:36;;;;;;;1.70;1.60;;;19.10;78.00;;;;;;5016857;28;20544;-83
2021/07/16 02:38:03;;;;;;;1.73;1.63;;;19.10;78.10;;;;;;5016610;28;20056;-83
2021/07/16 02:40:30;;;;;;;1.70;1.60;;;19.10;78.20;;;;;;5016771;28;20033;-83
2021/07/16 02:42:55;;;;;;;1.70;1.50;;;19.00;78.30;;;;;;5016434;28;20053;-83
2021/07/16 02:45:27;;;;;;;1.92;1.67;;;19.00;78.40;;;;;;5016493;28;20388;-83
2021/07/16 02:47:54;;;;;;;1.95;1.75;;;18.90;78.20;;;;;;5016586;28;20029;-83
2021/07/16 02:50:48;;;;;;;2.63;1.90;;;18.90;78.50;;;;;;5016366;28;20053;-83
2021/07/16 02:53:16;;;;;;;1.75;1.63;;;18.80;78.80;;;;;;5031630;28;20048;-83
2021/07/16 02:55:42;;;;;;;2.13;1.92;;;18.80;78.90;;;;;;5056320;28;20032;-83
2021/07/16 02:58:09;;;;;;;1.80;1.70;;;18.80;78.80;;;;;;5055442;28;20499;-83
2021/07/16 03:00:36;;;;;;;1.60;1.48;;;18.80;78.70;;;;;;5023304;28;20037;-83
2021/07/16 03:03:03;;;;;;;1.70;1.60;;;18.80;78.90;;;;;;5016216;28;20032;-83
2021/07/16 03:05:30;;;;;;;2.45;1.85;;;18.70;79.10;;;;;;5015028;28;20029;-83
2021/07/16 03:07:59;;;;;;;2.10;1.90;;;18.60;79.40;;;;;;5016178;28;20060;-83
2021/07/16 03:10:28;;;;;;;1.88;1.77;;;18.60;79.10;;;;;;5031345;28;20041;-83
2021/07/16 03:12:55;;;;;;;1.90;1.80;;;18.70;78.80;;;;;;5016053;28;20022;-83
2021/07/16 03:15:23;;;;;;;2.28;2.08;;;18.70;78.80;;;;;;5021230;28;20029;-83
2021/07/16 03:17:50;;;;;;;2.58;2.08;;;18.50;79.10;;;;;;5034497;28;20495;-83
2021/07/16 03:20:19;;;;;;;2.00;1.90;;;18.60;78.90;;;;;;5035799;28;20112;-83
2021/07/16 03:22:45;;;;;;;2.75;2.13;;;18.60;79.10;;;;;;5034282;28;20049;-83
2021/07/16 03:25:17;;;;;;;2.40;2.15;;;18.50;78.90;;;;;;5022132;28;20037;-83
2021/07/16 03:27:44;;;;;;;2.05;1.80;;;18.50;78.90;;;;;;5015943;28;20022;-83
2021/07/16 03:30:13;;;;;;;2.30;2.10;;;18.50;79.10;;;;;;5015857;28;20053;-83
2021/07/16 03:32:39;;;;;;;2.15;1.95;;;18.50;78.60;;;;;;5015739;28;20022;-83
2021/07/16 03:35:06;;;;;;;2.42;2.20;;;18.50;78.50;;;;;;5030995;28;20471;-83
2021/07/16 03:37:32;;;;;;;2.22;2.03;;;18.40;79.20;;;;;;5015684;28;20057;-83
2021/07/16 03:39:58;;;;;;;2.03;1.85;;;18.40;78.90;;;;;;5015705;28;20026;-83
2021/07/16 03:42:24;;;;;;;2.40;2.20;;;18.40;78.80;;;;;;5015674;28;20514;-83
2021/07/16 03:44:50;;;;;;;2.05;1.85;;;18.30;79.20;;;;;;5021048;28;20030;-83
2021/07/16 03:47:17;;;;;;;2.72;1.98;;;18.30;78.90;;;;;;5035601;28;20067;-83
2021/07/16 03:49:44;;;;;;;2.55;1.95;;;18.30;78.80;;;;;;5016398;28;20405;-83
2021/07/16 03:52:10;;;;;;;3.28;2.42;;;18.30;79.10;;;;;;5015426;28;20046;-83
2021/07/16 03:54:37;;;;;;;1.90;1.80;;;18.30;78.90;;;;;;5054377;28;20032;-83
2021/07/16 03:57:06;;;;;;;2.30;2.10;;;18.20;79.20;;;;;;5036983;28;20113;-83
2021/07/16 03:59:33;;;;;;;2.10;1.90;;;18.30;79.00;;;;;;5015531;28;20021;-83
2021/07/16 04:01:59;;;;;;;2.33;2.13;;;18.30;79.00;;;;;;5015645;28;20025;-83
2021/07/16 04:04:25;;;;;;;2.15;1.95;;;18.30;78.70;;;;;;5015317;28;20061;-83
2021/07/16 04:06:53;;;;;;;2.47;2.28;;;18.30;79.00;;;;;;5015596;28;20018;-83
2021/07/16 04:09:27;;;;;;;2.40;2.20;;;18.30;79.50;;;;;;5034513;28;20026;-83
2021/07/16 04:12:06;;;;;;;2.42;2.22;;;18.20;79.80;;;;;;5039287;28;20076;-83
2021/07/16 04:14:40;;;;;;;2.58;2.08;;;18.10;79.60;;;;;;5019618;28;20033;-83
2021/07/16 04:17:21;;;;;;;2.30;2.10;;;18.00;79.50;;;;;;5019397;28;20026;-83
2021/07/16 04:19:46;;;;;;;2.38;2.17;;;18.10;79.30;;;;;;5019463;28;20076;-83
2021/07/16 04:22:16;;;;;;;2.33;2.15;;;18.00;79.20;;;;;;5034247;28;20041;-83
2021/07/16 04:24:43;;;;;;;2.60;2.40;;;18.00;79.20;;;;;;5039125;28;20408;-83
2021/07/16 04:27:10;;;;;;;2.25;2.05;;;18.10;79.10;;;;;;5019265;28;20029;-83
2021/07/16 04:29:37;;;;;;;2.67;2.47;;;18.10;78.90;;;;;;5019150;28;20026;-83
2021/07/16 04:32:05;;;;;;;2.55;2.35;;;18.00;79.40;;;;;;5019335;28;20030;-83
2021/07/16 04:34:35;;;;;;;2.90;2.58;;;18.00;79.40;;;;;;5020979;28;20112;-83
2021/07/16 04:37:03;;;;;;;2.60;2.40;;;17.90;79.60;;;;;;5038867;28;20025;-83
2021/07/16 04:39:29;;;;;;;2.38;2.17;;;17.90;79.60;;;;;;5038746;28;20040;-83
2021/07/16 04:41:55;;;;;;;2.33;2.13;;;17.90;79.50;;;;;;5028365;28;20041;-83
2021/07/16 04:44:22;;;;;;;2.78;2.50;;;17.90;79.60;;;;;;5036142;28;20024;-83
2021/07/16 04:46:48;;;;;;;2.70;2.50;;;17.90;79.40;;;;;;5033546;28;20052;-77
2021/07/16 04:49:14;;;;;;;2.60;2.40;;;17.90;79.50;;;;;;5018851;28;20515;-78
2021/07/16 04:51:40;;;;;;;2.50;2.30;;;17.90;79.50;;;;;;5050113;28;20098;-76
2021/07/16 04:54:07;;;;;;;3.20;2.90;;;17.80;79.80;;;;;;5049458;28;20499;-75
2021/07/16 04:56:33;;;;;;;2.70;2.50;;;17.90;79.80;;;;;;5058567;28;20037;-77
2021/07/16 04:58:59;;;;;;;2.70;2.50;;;17.90;79.80;;;;;;5044850;28;20030;-75
2021/07/16 05:01:26;;;;;;;3.17;2.65;;;17.90;80.00;;;;;;5018418;28;20030;-75
2021/07/16 05:03:53;;;;;;;3.25;2.80;;;17.80;80.10;;;;;;5018452;28;20029;-76
2021/07/16 05:06:19;;;;;;;2.80;2.60;;;17.90;79.90;;;;;;5018494;28;20431;-75
2021/07/16 05:08:45;;;;;;;2.83;2.58;;;17.90;79.80;;;;;;5018545;28;20115;-77
2021/07/16 05:11:11;;;;;;;2.50;2.30;;;18.00;79.60;;;;;;5020602;28;20022;-76
2021/07/16 05:13:38;;;;;;;2.85;2.45;;;18.00;79.50;;;;;;5036672;28;20034;-76
2021/07/16 05:16:06;;;;;;;2.72;2.53;;;18.00;79.40;;;;;;5036060;28;20464;-75
2021/07/16 05:18:32;;;;;;;2.78;2.58;;;18.00;79.70;;;;;;5036889;28;20026;-75
2021/07/16 05:20:58;;;;;;;3.35;2.60;;;18.00;79.40;;;;;;5037310;28;21021;-75
2021/07/16 05:23:24;;;;;;;2.60;2.40;;;18.00;79.50;;;;;;5031324;28;20488;-75
2021/07/16 05:25:50;;;;;;;2.80;2.60;;;18.10;79.50;;;;;;5033374;28;20105;-75
2021/07/16 05:28:17;;;;;;;3.42;2.50;;;18.10;79.50;;;;;;5034708;28;20049;-75
2021/07/16 05:30:43;;;;;;;2.90;2.70;;;18.10;79.10;;;;;;5038171;28;20150;-75
2021/07/16 05:33:09;;;;;;;2.67;2.47;;;18.20;78.90;;;;;;5018119;28;20053;-76
2021/07/16 05:35:34;;;;;;;2.50;2.30;;;18.20;78.90;;;;;;5024662;28;20037;-76
2021/07/16 05:38:00;;;;;;;2.70;2.50;;;18.20;79.10;;;;;;5037497;28;20029;-76
2021/07/16 05:40:26;;;;;;;2.72;2.53;;;18.20;78.90;;;;;;5035868;28;20132;-76
2021/07/16 05:42:52;;;;;;;2.88;2.67;;;18.20;79.30;;;;;;5026851;28;20511;-75
2021/07/16 05:45:18;;;;;;;2.80;2.60;;;18.10;79.40;;;;;;5036909;28;20024;-75
2021/07/16 05:47:45;;;;;;;2.95;2.72;;;18.20;79.40;;;;;;5035778;28;20072;-75
2021/07/16 05:50:11;;;;;;;2.80;2.60;;;18.20;79.60;;;;;;5035780;28;20025;-76
2021/07/16 05:52:37;;;;;;;3.08;2.78;;;18.20;79.70;;;;;;5040179;28;20649;-75
2021/07/16 05:55:04;;;;;;;3.10;2.90;;;18.10;80.00;;;;;;5054765;28;20060;-75
2021/07/16 05:57:31;;;;;;;2.78;2.58;;;18.20;79.80;;;;;;5037283;28;20480;-75
2021/07/16 05:59:57;;;;;;;2.90;2.70;;;18.20;79.50;;;;;;5035390;28;20030;-75
2021/07/16 06:02:23;;;;;;;2.90;2.70;;;18.30;79.50;;;;;;5017451;28;20066;-76
2021/07/16 06:04:48;;;;;;;2.88;2.67;;;18.30;79.60;;;;;;5017467;28;20022;-75
2021/07/16 06:07:14;;;;;;;2.88;2.67;;;18.30;79.60;;;;;;5037232;28;20033;-76
2021/07/16 06:09:40;;;;;;;2.63;2.42;;;18.40;79.30;;;;;;5037056;28;20044;-75
2021/07/16 06:12:06;;;;;;;3.03;2.83;;;18.50;79.10;;;;;;5030278;28;20033;-75
2021/07/16 06:14:32;;;;;;;3.10;2.90;;;18.40;79.50;;;;;;5017251;28;20046;-75
2021/07/16 06:16:58;;;;;;;3.45;2.90;;;18.40;79.40;;;;;;5017395;28;20927;-75
2021/07/16 06:19:23;;;;;;;2.88;2.67;;;18.40;79.30;;;;;;5016880;28;20451;-75
2021/07/16 06:21:49;;;;;;;3.15;2.85;;;18.50;79.30;;;;;;5016992;28;20026;-75
2021/07/16 06:24:15;;;;;;;3.08;2.83;;;18.50;79.20;;;;;;5017069;28;20048;-75
2021/07/16 06:26:41;;;;;;;3.17;2.88;;;18.60;79.40;;;;;;5017057;28;20022;-75
2021/07/16 06:29:07;;;;;;;2.60;2.40;;;18.50;79.50;;;;;;5016753;28;20033;-75
2021/07/16 06:31:34;;;;;;;3.25;2.70;;;18.60;79.50;;;;;;5016768;28;20377;-75
2021/07/16 06:34:00;;;;;;;2.75;2.40;;;18.70;79.20;;;;;;5016023;28;20033;-75
2021/07/16 06:36:26;;;;;;;2.75;2.55;;;18.80;78.80;;;;;;5019808;28;20031;-75
2021/07/16 06:38:52;;;;;;;2.63;2.42;;;18.80;78.80;;;;;;5036708;28;20112;-75
2021/07/16 06:41:19;;;;;;;2.80;2.60;;;18.80;79.10;;;;;;5036467;28;20518;-75
2021/07/16 06:43:44;;;;;;;2.47;2.28;;;18.80;79.30;;;;;;5025435;28;20052;-75
2021/07/16 06:46:12;;;;;;;2.42;2.22;;;18.90;79.50;;;;;;5016537;28;20101;-75
2021/07/16 06:48:42;;;;;;;2.55;2.35;;;18.90;79.40;;;;;;5016732;28;20036;-76
2021/07/16 06:51:11;;;;;;;2.50;2.30;;;19.00;78.80;;;;;;5016342;28;20076;-75
2021/07/16 06:53:37;;;;;;;2.92;2.72;;;19.30;77.90;;;;;;5039215;28;20420;-75
2021/07/16 06:56:04;;;;;;;2.65;2.45;;;19.60;77.50;;;;;;5040872;28;20032;-75
2021/07/16 06:58:30;;;;;;;2.40;2.20;;;19.90;76.60;;;;;;5015441;28;20151;-75
2021/07/16 07:00:56;;;;;;;2.17;1.98;;;19.90;76.40;;;;;;5027322;28;20174;-76
2021/07/16 07:03:28;;;;;;;2.83;2.53;;;19.90;76.10;;;;;;5035664;28;20025;-75
2021/07/16 07:05:54;;;;;;;1.85;1.75;;;19.80;76.50;;;;;;5016242;28;20077;-75
2021/07/16 07:08:20;;;;;;;2.60;1.80;;;20.20;75.80;;;;;;5016285;28;20084;-75
2021/07/16 07:10:46;;;;;;;2.25;2.05;;;20.30;75.30;;;;;;5016359;28;20034;-75
2021/07/16 07:13:11;;;;;;;2.40;1.90;;;20.50;74.50;;;;;;5015759;28;20088;-75
2021/07/16 07:15:37;;;;;;;2.35;2.10;;;20.90;73.70;;;;;;5024714;28;20488;-76
2021/07/16 07:18:05;;;;;;;2.38;1.95;;;21.00;73.20;;;;;;5032119;28;20169;-75
2021/07/16 07:20:31;;;;;;;1.98;1.60;;;21.00;73.10;;;;;;5033361;28;20024;-76
2021/07/16 07:22:56;;;;;;;2.10;1.50;;;21.30;72.70;;;;;;5029399;28;20408;-76
2021/07/16 07:25:22;;;;;;;1.88;1.20;;;21.50;71.60;;;;;;5014329;28;20030;-75
2021/07/16 07:27:48;;;;;;;1.38;1.05;;;21.50;70.90;;;;;;5014981;28;20022;-75
2021/07/16 07:30:14;;;;;;;2.60;1.20;;;21.80;69.50;;;;;;5016352;28;20056;-74
2021/07/16 07:32:40;;;;;;;1.65;1.33;;;21.80;69.70;;;;;;5033418;28;20025;-75
2021/07/16 07:35:07;;;;;;;1.73;1.30;;;22.10;68.30;;;;;;5033143;28;20395;-76
2021/07/16 07:37:33;;;;;;;2.17;1.10;;;22.00;68.40;;;;;;5034592;28;20697;-76
2021/07/16 07:40:00;;;;;;;1.95;1.02;;;22.50;68.00;;;;;;5023859;28;20058;-76
2021/07/16 07:42:26;;;;;;;1.25;0.80;;;24.00;63.30;;;;;;5014666;28;21259;-74
2021/07/16 07:44:53;;;;;;;1.85;1.00;;;23.70;63.70;;;;;;5032693;28;20025;-75
2021/07/16 07:47:20;;;;;;;1.17;0.65;;;25.20;60.50;;;;;;5034487;28;20025;-75
2021/07/16 07:49:46;;;;;;;1.48;0.60;;;27.20;53.30;;;;;;5032895;28;20045;-74
2021/07/16 07:52:12;;;;;;;1.08;0.82;;;26.10;55.20;;;;;;5029789;28;20157;-74
2021/07/16 07:54:39;;;;;;;1.30;0.65;;;27.00;53.90;;;;;;5014659;28;20053;-75
2021/07/16 07:57:05;;;;;;;1.30;0.70;;;27.60;47.70;;;;;;5015875;28;20025;-76
2021/07/16 07:59:31;;;;;;;0.93;0.38;;;29.90;46.10;;;;;;5020516;28;20881;-76
2021/07/16 08:01:57;;;;;;;0.55;0.40;;;29.10;43.00;;;;;;5013363;28;20094;-77
2021/07/16 08:04:23;;;;;;;0.70;0.35;;;27.40;49.10;;;;;;5014312;28;20038;-76
2021/07/16 08:06:48;;;;;;;1.45;0.60;;;26.30;52.20;;;;;;5013152;28;20523;-76
2021/07/16 08:09:14;;;;;;;1.40;0.70;;;25.40;54.30;;;;;;5014475;28;20102;-75
2021/07/16 08:11:40;;;;;;;0.98;0.60;;;25.20;53.00;;;;;;5014657;28;20061;-75
2021/07/16 08:14:06;;;;;;;1.25;0.65;;;24.80;54.70;;;;;;5014400;28;20029;-76
2021/07/16 08:16:32;;;;;;;1.15;0.30;;;26.30;51.10;;;;;;5023264;28;20030;-76
2021/07/16 08:18:57;;;;;;;1.25;0.70;;;27.70;47.80;;;;;;5022245;28;20043;-77
2021/07/16 08:21:24;;;;;;;0.80;0.40;;;29.70;43.90;;;;;;5027678;28;20464;-76
2021/07/16 08:23:50;;;;;;;0.77;0.55;;;28.50;45.30;;;;;;5014317;28;20022;-76
2021/07/16 08:26:18;;;;;;;1.23;0.45;;;28.70;45.70;;;;;;5032571;28;20476;-76
2021/07/16 08:28:44;;;;;;;0.80;0.30;;;28.00;45.00;;;;;;5034118;28;20484;-75
2021/07/16 08:31:10;;;;;;;0.80;0.40;;;26.90;47.10;;;;;;5027333;28;20022;-76
2021/07/16 08:33:36;;;;;;;1.10;0.60;;;26.20;47.60;;;;;;5012978;28;20037;-77
2021/07/16 08:36:02;;;;;;;0.90;0.50;;;27.50;48.20;;;;;;5014356;28;20022;-77
2021/07/16 08:38:28;;;;;;;0.70;0.30;;;29.80;44.00;;;;;;5029111;28;20044;-75
2021/07/16 08:40:54;;;;;;;0.80;0.40;;;29.70;42.50;;;;;;5014092;28;20105;-76
2021/07/16 08:43:22;;;;;;;0.30;0.15;;;31.00;39.30;;;;;;5021154;28;20025;-76
2021/07/16 08:45:51;;;;;;;1.70;0.33;;;29.70;41.60;;;;;;5033182;28;20113;-76
2021/07/16 08:48:17;;;;;;;1.23;0.50;;;28.30;43.80;;;;;;5032645;28;20112;-75
2021/07/16 08:50:44;;;;;;;3.97;1.40;;;27.50;45.40;;;;;;5020435;28;20034;-75
2021/07/16 08:53:12;;;;;;;1.58;0.45;;;27.20;45.90;;;;;;5040225;28;20099;-76
2021/07/16 08:55:41;;;;;;;1.23;0.35;;;26.80;46.50;;;;;;5027278;28;20030;-76
2021/07/16 08:58:07;;;;;;;4.63;1.40;;;26.60;47.30;;;;;;5017750;28;20104;-76
2021/07/16 09:00:33;;;;;;;1.00;0.55;;;26.20;48.80;;;;;;5035015;28;20136;-75
2021/07/16 09:03:00;;;;;;;0.63;0.40;;;25.80;50.10;;;;;;5037405;28;20152;-75
2021/07/16 09:05:39;;;;;;;1.55;0.57;;;25.20;50.10;;;;;;5022935;28;20439;-75
2021/07/16 09:08:13;;;;;;;1.45;0.50;;;24.90;51.10;;;;;;5016344;28;20109;-77
2021/07/16 09:11:13;;;;;;;1.23;0.60;;;24.90;51.00;;;;;;5017550;28;20030;-76
2021/07/16 09:13:39;;;;;;;1.10;0.47;;;26.40;48.80;;;;;;5017494;28;20096;-77
2021/07/16 09:16:05;;;;;;;1.10;0.57;;;28.90;44.70;;;;;;5017430;28;20034;-75
2021/07/16 09:18:32;;;;;;;1.67;0.82;;;30.70;41.70;;;;;;5017475;28;20080;-76
2021/07/16 09:21:01;;;;;;;0.93;0.40;;;31.90;38.90;;;;;;5029932;28;20030;-75
2021/07/16 09:23:50;;;;;;;0.60;0.30;;;32.90;36.00;;;;;;5037043;28;20100;-76
2021/07/16 09:26:26;;;;;;;0.68;0.30;;;33.60;33.70;;;;;;5031537;28;20045;-76
2021/07/16 09:28:53;;;;;;;1.00;0.40;;;34.40;32.80;;;;;;5016357;28;20053;-77
2021/07/16 09:31:24;;;;;;;1.92;0.73;;;35.00;31.90;;;;;;5017082;28;20053;-76
2021/07/16 09:33:53;;;;;;;0.68;0.30;;;35.40;31.10;;;;;;5017095;28;20624;-77
2021/07/16 09:36:29;;;;;;;1.15;0.35;;;36.00;30.00;;;;;;5017143;28;20029;-77
2021/07/16 09:39:10;;;;;;;0.85;0.38;;;36.00;29.40;;;;;;5016848;28;20508;-77
2021/07/16 09:41:51;;;;;;;0.70;0.30;;;36.40;29.10;;;;;;5017245;28;20030;-77
2021/07/16 09:44:28;;;;;;;0.85;0.32;;;36.90;29.50;;;;;;5031335;28;20045;-77
2021/07/16 09:47:19;;;;;;;0.68;0.35;;;37.20;29.60;;;;;;5035405;28;20040;-76
2021/07/16 09:49:48;;;;;;;1.25;0.30;;;37.30;28.30;;;;;;5025208;28;20026;-76
2021/07/16 09:52:14;;;;;;;;;;;37.30;28.20;;;;;;5017307;28;20052;-76
2021/07/16 09:55:09;;;;;;;0.73;0.40;;;37.70;27.10;;;;;;5055000;28;20349;-76
2021/07/16 09:57:43;;;;;;;0.50;0.20;;;38.10;26.30;;;;;;5056481;28;20029;-77
2021/07/16 10:00:20;;;;;;;0.80;0.40;;;36.30;27.40;;;;;;5025422;28;20080;-77
2021/07/16 10:02:50;;;;;;;0.85;0.30;;;36.80;27.60;;;;;;5034654;28;20450;-77
2021/07/16 10:05:16;;;;;;;0.80;0.20;;;37.00;28.20;;;;;;5034928;28;20032;-77
2021/07/16 10:07:44;;;;;;;0.52;0.30;;;35.90;28.40;;;;;;5036130;28;20144;-77
2021/07/16 10:10:18;;;;;;;0.85;0.38;;;35.00;30.30;;;;;;5034361;28;20033;-77
2021/07/16 10:12:45;;;;;;;0.50;0.28;;;35.40;30.00;;;;;;5036117;28;20040;-76
2021/07/16 10:15:12;;;;;;;0.80;0.30;;;36.00;29.70;;;;;;5035155;28;20037;-76
2021/07/16 10:17:39;;;;;;;0.50;0.20;;;36.20;28.20;;;;;;5021027;28;20496;-76
2021/07/16 10:20:11;;;;;;;0.68;0.55;;;36.20;29.10;;;;;;5016210;28;20113;-77
2021/07/16 10:22:41;;;;;;;0.60;0.30;;;36.30;29.40;;;;;;5035662;28;20030;-75
2021/07/16 10:25:12;;;;;;;0.60;0.22;;;36.20;29.50;;;;;;5035910;28;20033;-75
2021/07/16 10:27:42;;;;;;;0.52;0.30;;;36.00;29.30;;;;;;5030242;28;20026;-77
2021/07/16 10:30:18;;;;;;;0.80;0.30;;;36.00;28.50;;;;;;5015876;28;20033;-76
2021/07/16 10:32:44;;;;;;;0.73;0.32;;;36.00;28.80;;;;;;5033717;28;20033;-77
2021/07/16 10:35:34;;;;;;;0.50;0.30;;;36.20;29.20;;;;;;5035779;28;20053;-76
2021/07/16 10:38:02;;;;;;;0.70;0.30;;;36.10;29.20;;;;;;5016014;28;20026;-76
2021/07/16 10:40:37;;;;;;;0.35;0.20;;;36.10;29.10;;;;;;5016043;28;20052;-76
2021/07/16 10:43:04;;;;;;;0.98;0.20;;;35.50;29.20;;;;;;5023732;28;20044;-77
2021/07/16 10:45:40;;;;;;;1.10;0.22;;;35.10;28.90;;;;;;5035573;28;20484;-77
2021/07/16 10:48:16;;;;;;;0.20;0.10;;;34.30;30.10;;;;;;5035619;28;20035;-77
2021/07/16 10:50:44;;;;;;;1.02;0.43;;;33.50;31.70;;;;;;5033871;28;20017;-77
2021/07/16 10:53:16;;;;;;;0.90;0.30;;;32.90;31.80;;;;;;5034435;28;20049;-76
2021/07/16 10:55:42;;;;;;;0.52;0.20;;;32.30;33.50;;;;;;5035928;28;20025;-76
2021/07/16 10:58:22;;;;;;;0.60;0.20;;;31.80;33.50;;;;;;5034029;28;20033;-76
2021/07/16 11:00:50;;;;;;;0.82;0.30;;;31.10;36.40;;;;;;5031664;28;20487;-76
2021/07/16 11:03:17;;;;;;;0.40;0.20;;;30.60;35.30;;;;;;5034517;28;20037;-76
2021/07/16 11:05:44;;;;;;;0.70;0.30;;;30.50;35.30;;;;;;5033038;28;20504;-75
2021/07/16 11:08:39;;;;;;;1.25;0.30;;;30.30;35.80;;;;;;5035821;28;20013;-76
2021/07/16 11:11:06;;;;;;;0.73;0.20;;;30.10;36.90;;;;;;5033145;28;20021;-76
2021/07/16 11:13:37;;;;;;;0.47;0.20;;;29.70;36.80;;;;;;5034583;28;20369;-78
2021/07/16 11:16:15;;;;;;;0.90;0.20;;;29.80;38.00;;;;;;5033099;28;20033;-76
2021/07/16 11:19:01;;;;;;;0.60;0.30;;;29.80;37.50;;;;;;5036512;28;20037;-78
2021/07/16 11:24:19;;;;;;;1.02;0.28;;;29.60;37.50;;;;;;5034842;28;20040;-75
2021/07/16 11:27:07;;;;;;;0.77;0.30;;;29.40;37.50;;;;;;5032596;28;20022;-75
2021/07/16 11:29:38;;;;;;;0.55;0.25;;;29.30;37.80;;;;;;5030550;28;20086;-75
2021/07/16 11:32:04;;;;;;;0.93;0.40;;;29.30;38.90;;;;;;5034378;28;20026;-75
2021/07/16 11:34:30;;;;;;;0.65;0.30;;;29.10;39.40;;;;;;5033131;28;20024;-77
2021/07/16 11:36:56;;;;;;;0.90;0.30;;;29.10;38.40;;;;;;5034391;28;20026;-75
2021/07/16 11:39:33;;;;;;;0.50;0.25;;;29.10;37.30;;;;;;5034468;28;20021;-75
2021/07/16 11:42:00;;;;;;;0.65;0.30;;;29.10;38.70;;;;;;5032984;28;20036;-77
2021/07/16 11:44:41;;;;;;;0.77;0.40;;;29.00;38.60;;;;;;5033233;28;20040;-75
2021/07/16 11:47:25;;;;;;;0.60;0.30;;;28.50;39.40;;;;;;5034095;28;20476;-77
2021/07/16 11:50:00;;;;;;;0.90;0.40;;;28.50;38.60;;;;;;5031923;28;20020;-77
2021/07/16 11:52:28;;;;;;;0.60;0.30;;;28.60;39.90;;;;;;5035279;28;20571;-77
2021/07/16 11:55:17;;;;;;;0.50;0.30;;;28.50;39.80;;;;;;5032289;28;20021;-77
2021/07/16 11:57:49;;;;;;;2.70;0.70;;;28.50;41.20;;;;;;5033515;28;20025;-77
2021/07/16 12:00:16;;;;;;;2.55;0.70;;;28.60;40.40;;;;;;5032263;28;20025;-76
2021/07/16 12:02:42;;;;;;;0.63;0.30;;;28.60;39.20;;;;;;5030189;28;20021;-76
2021/07/16 12:05:08;;;;;;;0.45;0.20;;;28.40;39.90;;;;;;5033834;28;20112;-76
2021/07/16 12:07:36;;;;;;;0.60;0.28;;;28.10;40.80;;;;;;5032959;28;20412;-77
2021/07/16 12:10:08;;;;;;;0.60;0.30;;;28.30;39.90;;;;;;5034056;28;20018;-77
2021/07/16 12:12:35;;;;;;;0.68;0.35;;;28.30;39.00;;;;;;5030851;28;20048;-77
2021/07/16 12:15:07;;;;;;;0.80;0.40;;;28.30;40.00;;;;;;5033961;28;20022;-77
2021/07/16 12:17:41;;;;;;;1.25;0.45;;;28.30;39.20;;;;;;5032130;28;20030;-77
2021/07/16 12:20:13;;;;;;;0.73;0.38;;;28.30;40.60;;;;;;5031917;28;20033;-77
2021/07/16 12:22:44;;;;;;;0.50;0.30;;;28.10;41.40;;;;;;5033860;28;20013;-77
2021/07/16 12:25:11;;;;;;;1.00;0.40;;;28.20;40.90;;;;;;5031367;28;20480;-77
2021/07/16 12:27:38;;;;;;;0.57;0.32;;;28.00;40.90;;;;;;5030640;28;20072;-77
2021/07/16 12:30:08;;;;;;;1.70;0.45;;;28.20;41.00;;;;;;5033550;28;20083;-77
2021/07/16 12:32:46;;;;;;;0.80;0.30;;;28.20;40.00;;;;;;5035811;28;20028;-77
2021/07/16 12:35:26;;;;;;;1.05;0.50;;;28.20;38.80;;;;;;5034304;28;20025;-76
2021/07/16 12:38:00;;;;;;;0.65;0.32;;;28.10;38.50;;;;;;5034057;28;20014;-76
2021/07/16 12:40:26;;;;;;;1.05;0.45;;;27.90;39.50;;;;;;5036555;28;20032;-76
2021/07/16 12:43:06;;;;;;;0.63;0.30;;;27.90;39.50;;;;;;5034524;28;20124;-77
2021/07/16 12:45:47;;;;;;;0.75;0.40;;;28.10;39.50;;;;;;5035185;28;20026;-76
2021/07/16 12:48:17;;;;;;;0.70;0.30;;;28.10;39.90;;;;;;5035288;28;20056;-76
2021/07/16 12:50:44;;;;;;;0.85;0.35;;;28.10;41.80;;;;;;5027987;28;20025;-75
2021/07/16 12:53:11;;;;;;;0.98;0.47;;;28.30;42.30;;;;;;5034375;28;20048;-75
2021/07/16 12:55:40;;;;;;;0.90;0.43;;;28.40;41.70;;;;;;5039214;28;20034;-75
2021/07/16 12:58:09;;;;;;;0.68;0.30;;;28.40;42.00;;;;;;5025776;28;20026;-75